Time;durP1;ratioP1;P1;durP2;ratioP2;P2;SDS_P1;SDS_P2;PMS_P1;PMS_P2;Temp;Humidity;BMP_temperature;BMP_pressure;BME280_temperature;BME280_humidity;BME280_pressure;Samples;Min_cycle;Max_cycle;Signal;HPM_P1;HPM_P2
2022/04/16 00:01:42;;;;;;;24.30;18.53;;;9.30;35.00;;;;;;5073773;28;20218;-62
2022/04/16 00:04:09;;;;;;;20.70;18.30;;;9.30;34.70;;;;;;5073834;28;20659;-62
2022/04/16 00:06:35;;;;;;;20.60;17.23;;;9.30;33.50;;;;;;5073556;28;20179;-62
2022/04/16 00:09:02;;;;;;;25.63;17.83;;;9.30;33.20;;;;;;5073441;28;20184;-62
2022/04/16 00:11:27;;;;;;;22.50;17.70;;;9.20;36.30;;;;;;5073542;28;20173;-63
2022/04/16 00:13:53;;;;;;;23.13;19.33;;;9.20;39.40;;;;;;5073379;28;20177;-62
2022/04/16 00:16:19;;;;;;;22.83;19.07;;;9.20;40.50;;;;;;5073767;28;20175;-61
2022/04/16 00:18:44;;;;;;;26.07;18.90;;;9.20;42.50;;;;;;5073809;28;20255;-62
2022/04/16 00:21:12;;;;;;;22.47;18.97;;;9.10;44.20;;;;;;5072931;28;20212;-62
2022/04/16 00:23:41;;;;;;;22.50;17.93;;;9.10;45.90;;;;;;5072997;28;20187;-62
2022/04/16 00:26:07;;;;;;;25.40;18.53;;;9.10;46.20;;;;;;5073055;28;20176;-62
2022/04/16 00:28:35;;;;;;;25.97;18.13;;;9.00;46.60;;;;;;5073504;28;20207;-63
2022/04/16 00:31:01;;;;;;;23.27;18.80;;;9.00;47.00;;;;;;5073474;28;20187;-62
2022/04/16 00:33:27;;;;;;;25.53;18.63;;;9.00;48.10;;;;;;5073414;28;20172;-63
2022/04/16 00:35:52;;;;;;;26.03;20.50;;;8.90;46.40;;;;;;5073125;28;20233;-62
2022/04/16 00:38:19;;;;;;;27.30;21.00;;;8.90;48.20;;;;;;5072835;28;20176;-62
2022/04/16 00:40:45;;;;;;;24.57;19.33;;;8.90;46.50;;;;;;5073017;28;20632;-62
2022/04/16 00:43:20;;;;;;;25.80;19.47;;;8.90;47.00;;;;;;5073310;28;20196;-62
2022/04/16 00:45:47;;;;;;;26.87;19.97;;;8.90;47.60;;;;;;5073263;28;20202;-62
2022/04/16 00:48:12;;;;;;;27.20;20.13;;;8.90;50.50;;;;;;5073233;28;20578;-63
2022/04/16 00:50:39;;;;;;;27.80;19.87;;;8.80;51.40;;;;;;5072870;28;20204;-61
2022/04/16 00:53:05;;;;;;;26.70;20.90;;;8.80;53.60;;;;;;5072786;28;20501;-63
2022/04/16 00:55:36;;;;;;;26.53;19.80;;;8.80;55.40;;;;;;5072746;28;20636;-62
2022/04/16 00:58:02;;;;;;;27.87;20.40;;;8.70;56.00;;;;;;5073134;28;20168;-63
2022/04/16 01:00:27;;;;;;;25.33;20.43;;;8.70;58.00;;;;;;5073048;28;20341;-62
2022/04/16 01:02:55;;;;;;;25.07;20.13;;;8.70;58.30;;;;;;5072910;28;20196;-61
2022/04/16 01:05:21;;;;;;;25.13;17.80;;;8.60;60.40;;;;;;5072722;28;20179;-62
2022/04/16 01:07:58;;;;;;;23.07;14.77;;;8.60;58.60;;;;;;5073183;28;20514;-62
2022/04/16 01:10:26;;;;;;;27.13;20.97;;;8.60;59.80;;;;;;5072865;28;20250;-62
2022/04/16 01:12:52;;;;;;;28.90;20.63;;;8.60;63.30;;;;;;5073046;28;20176;-62
2022/04/16 01:15:20;;;;;;;27.30;20.93;;;8.60;64.70;;;;;;5072952;28;20199;-63
2022/04/16 01:17:47;;;;;;;29.40;21.13;;;8.50;64.90;;;;;;5072785;28;20555;-61
2022/04/16 01:20:14;;;;;;;26.97;20.80;;;8.50;65.80;;;;;;5072223;28;20346;-62
2022/04/16 01:22:40;;;;;;;28.73;22.20;;;8.50;66.70;;;;;;5072786;28;20173;-62
2022/04/16 01:25:07;;;;;;;25.40;20.80;;;8.50;67.60;;;;;;5072904;28;20183;-62
2022/04/16 01:27:36;;;;;;;28.17;20.43;;;8.50;67.70;;;;;;5072675;28;20215;-62
2022/04/16 01:30:05;;;;;;;29.23;21.27;;;8.50;67.40;;;;;;5072765;28;20169;-62
2022/04/16 01:32:34;;;;;;;28.27;21.53;;;8.50;68.50;;;;;;5072609;28;20234;-63
2022/04/16 01:35:00;;;;;;;32.47;22.07;;;8.50;68.80;;;;;;5072126;28;20172;-63
2022/04/16 01:37:31;;;;;;;29.30;22.10;;;8.40;71.50;;;;;;5072863;28;20180;-63
2022/04/16 01:39:58;;;;;;;28.90;21.40;;;8.40;72.60;;;;;;5076497;28;20255;-62
2022/04/16 01:42:24;;;;;;;29.57;22.07;;;8.30;74.60;;;;;;5076396;28;20184;-62
2022/04/16 01:44:51;;;;;;;29.40;21.70;;;8.30;77.70;;;;;;5076362;28;20218;-63
2022/04/16 01:47:17;;;;;;;30.10;21.77;;;8.20;80.90;;;;;;5076205;28;20233;-61
2022/04/16 01:49:43;;;;;;;29.30;22.87;;;8.20;84.20;;;;;;5075687;28;20177;-62
2022/04/16 01:52:09;;;;;;;29.93;22.93;;;8.20;85.00;;;;;;5076198;28;20177;-61
2022/04/16 01:54:36;;;;;;;27.17;21.07;;;8.20;85.90;;;;;;5076416;28;20181;-62
2022/04/16 01:57:02;;;;;;;31.20;22.17;;;8.10;86.50;;;;;;5075881;28;20281;-62
2022/04/16 01:59:29;;;;;;;31.03;21.57;;;8.10;86.70;;;;;;5076241;28;20267;-62
2022/04/16 02:01:56;;;;;;;30.90;23.27;;;8.10;88.90;;;;;;5075903;28;20309;-62
2022/04/16 02:04:22;;;;;;;31.47;22.60;;;8.10;90.00;;;;;;5075398;28;20186;-63
2022/04/16 02:06:50;;;;;;;33.13;23.30;;;8.10;90.40;;;;;;5076223;28;20241;-62
2022/04/16 02:09:16;;;;;;;34.10;24.90;;;8.00;90.50;;;;;;5075818;28;20222;-62
2022/04/16 02:11:43;;;;;;;34.10;23.73;;;8.00;91.30;;;;;;5076129;28;20177;-62
2022/04/16 02:14:08;;;;;;;31.67;24.17;;;8.10;91.50;;;;;;5075864;28;20247;-63
2022/04/16 02:16:34;;;;;;;31.70;23.77;;;8.10;90.90;;;;;;5075695;28;20188;-63
2022/04/16 02:19:00;;;;;;;34.30;22.77;;;8.10;91.30;;;;;;5075215;28;20639;-62
2022/04/16 02:21:26;;;;;;;28.83;21.20;;;8.10;90.80;;;;;;5075768;28;20220;-62
2022/04/16 02:23:52;;;;;;;35.20;22.67;;;8.10;90.20;;;;;;5075734;28;20655;-62
2022/04/16 02:26:20;;;;;;;29.87;23.23;;;8.00;90.80;;;;;;5075855;28;20204;-62
2022/04/16 02:28:48;;;;;;;31.27;23.47;;;8.00;91.60;;;;;;5075689;28;20223;-62
2022/04/16 02:31:14;;;;;;;34.10;23.00;;;8.00;91.60;;;;;;5075357;28;20169;-62
2022/04/16 02:33:40;;;;;;;32.27;24.13;;;7.90;91.40;;;;;;5075055;28;20268;-63
2022/04/16 02:36:07;;;;;;;32.23;23.20;;;8.00;91.80;;;;;;5075445;28;20212;-62
2022/04/16 02:38:33;;;;;;;34.40;23.47;;;8.00;91.10;;;;;;5075478;28;20216;-62
2022/04/16 02:40:59;;;;;;;31.90;23.70;;;8.00;91.90;;;;;;5075231;28;20215;-62
2022/04/16 02:43:24;;;;;;;30.33;22.70;;;8.00;92.10;;;;;;5075345;28;20177;-62
2022/04/16 02:48:34;;;;;;;31.30;22.93;;;7.90;92.00;;;;;;5074839;28;20168;-62
2022/04/16 02:51:00;;;;;;;30.33;22.53;;;8.00;92.30;;;;;;5075335;28;20181;-62
2022/04/16 02:53:26;;;;;;;34.00;23.67;;;7.90;92.20;;;;;;5075115;28;20187;-63
2022/04/16 02:55:55;;;;;;;30.80;21.30;;;7.90;92.70;;;;;;5074685;28;20228;-62
2022/04/16 02:58:21;;;;;;;29.53;22.63;;;7.90;92.60;;;;;;5074962;28;20218;-62
2022/04/16 03:00:47;;;;;;;31.27;22.07;;;7.90;92.20;;;;;;5074853;28;20215;-62
2022/04/16 03:03:12;;;;;;;29.50;22.63;;;7.90;92.10;;;;;;5074458;28;20169;-62
2022/04/16 03:05:39;;;;;;;32.93;23.33;;;7.90;91.80;;;;;;5074807;28;20529;-61
2022/04/16 03:08:09;;;;;;;32.50;23.53;;;7.90;91.80;;;;;;5074835;28;20183;-62
2022/04/16 03:10:35;;;;;;;33.10;24.43;;;7.90;91.60;;;;;;5074920;28;20252;-62
2022/04/16 03:13:01;;;;;;;33.10;23.13;;;8.00;91.40;;;;;;5074484;28;20260;-62
2022/04/16 03:18:11;;;;;;;35.50;24.97;;;7.90;90.80;;;;;;5074431;28;20179;-61
2022/04/16 03:20:42;;;;;;;32.40;23.43;;;8.00;90.50;;;;;;5074775;28;20204;-62
2022/04/16 03:23:09;;;;;;;34.03;24.20;;;7.90;90.00;;;;;;5074451;28;20192;-62
2022/04/16 03:25:37;;;;;;;32.03;23.90;;;8.00;89.70;;;;;;5074287;28;20177;-62
2022/04/16 03:28:03;;;;;;;30.80;24.10;;;8.00;89.50;;;;;;5074620;28;20176;-62
2022/04/16 03:30:29;;;;;;;32.33;23.47;;;8.00;89.50;;;;;;5074107;28;20662;-61
2022/04/16 03:32:54;;;;;;;34.47;24.20;;;8.00;85.50;;;;;;5074504;28;20181;-62
2022/04/16 03:35:22;;;;;;;34.90;24.73;;;7.90;87.50;;;;;;5074143;28;20242;-62
2022/04/16 03:37:48;;;;;;;34.63;23.53;;;8.00;88.40;;;;;;5074333;28;20176;-62
2022/04/16 03:40:13;;;;;;;28.07;17.00;;;7.90;88.00;;;;;;5073838;28;20211;-63
2022/04/16 03:42:51;;;;;;;36.47;25.07;;;7.90;88.40;;;;;;5074162;28;20191;-62
2022/04/16 03:45:23;;;;;;;33.03;21.40;;;7.90;90.00;;;;;;5073098;28;20177;-62
2022/04/16 03:47:50;;;;;;;36.33;25.43;;;7.90;90.00;;;;;;5073781;28;20646;-61
2022/04/16 03:50:17;;;;;;;36.83;25.47;;;7.80;90.90;;;;;;5073996;28;20671;-62
2022/04/16 03:52:44;;;;;;;36.23;25.87;;;7.80;91.30;;;;;;5073603;28;20173;-62
2022/04/16 04:00:48;;;;;;;36.27;24.57;;;7.80;91.70;;;;;;5072681;28;20896;-62
2022/04/16 04:03:15;;;;;;;32.47;22.10;;;7.80;91.70;;;;;;5073909;28;20175;-63
2022/04/16 04:05:41;;;;;;;37.93;24.67;;;7.70;92.20;;;;;;5073524;28;20646;-62
2022/04/16 04:08:08;;;;;;;35.73;26.73;;;7.70;92.90;;;;;;5073450;28;20699;-62
2022/04/16 04:10:34;;;;;;;38.37;27.03;;;7.70;93.70;;;;;;5073549;28;20165;-62
2022/04/16 04:13:00;;;;;;;42.27;27.10;;;7.70;93.30;;;;;;5073699;28;20546;-62
2022/04/16 04:15:29;;;;;;;37.30;26.03;;;7.70;93.70;;;;;;5073031;28;20616;-61
2022/04/16 04:17:56;;;;;;;36.33;26.47;;;7.70;94.00;;;;;;5073474;28;20171;-61
2022/04/16 04:20:21;;;;;;;38.20;27.67;;;7.70;94.40;;;;;;5073363;28;20192;-62
2022/04/16 04:22:47;;;;;;;37.73;26.77;;;7.60;94.80;;;;;;5073130;28;20187;-62
2022/04/16 04:25:13;;;;;;;40.33;27.10;;;7.60;94.90;;;;;;5073184;28;20204;-62
2022/04/16 04:27:38;;;;;;;44.73;28.13;;;7.60;95.60;;;;;;5072889;28;20168;-63
2022/04/16 04:30:05;;;;;;;38.13;27.50;;;7.60;94.50;;;;;;5072813;28;20206;-62
2022/04/16 04:32:31;;;;;;;41.77;27.37;;;7.70;95.20;;;;;;5073319;28;20185;-63
2022/04/16 04:34:57;;;;;;;39.77;27.60;;;7.70;94.30;;;;;;5073113;28;20172;-63
2022/04/16 04:37:23;;;;;;;40.17;27.93;;;7.60;95.30;;;;;;5073132;28;20172;-63
2022/04/16 04:39:49;;;;;;;41.07;24.30;;;7.60;96.60;;;;;;5073021;28;20612;-62
2022/04/16 04:42:26;;;;;;;40.57;28.70;;;7.50;96.70;;;;;;5072241;28;20212;-62
2022/04/16 04:44:52;;;;;;;41.43;27.00;;;7.50;97.70;;;;;;5072559;28;20172;-62
2022/04/16 04:47:18;;;;;;;41.70;27.83;;;7.50;97.20;;;;;;5073060;28;20586;-62
2022/04/16 04:49:43;;;;;;;42.37;28.00;;;7.50;97.70;;;;;;5073088;28;20540;-60
2022/04/16 04:52:09;;;;;;;39.77;28.60;;;7.50;97.60;;;;;;5072833;28;20639;-62
2022/04/16 04:54:35;;;;;;;42.90;28.77;;;7.50;97.60;;;;;;5072838;28;20230;-62
2022/04/16 04:57:03;;;;;;;42.43;28.77;;;7.50;97.90;;;;;;5072240;28;20239;-63
2022/04/16 04:59:28;;;;;;;40.17;26.80;;;7.50;98.30;;;;;;5072505;28;20527;-63
2022/04/16 05:01:54;;;;;;;45.20;29.23;;;7.60;96.50;;;;;;5072516;28;20214;-62
2022/04/16 05:04:20;;;;;;;42.23;28.13;;;7.70;98.20;;;;;;5072875;28;20172;-63
2022/04/16 05:06:45;;;;;;;40.90;28.33;;;7.90;96.10;;;;;;5073120;28;20180;-63
2022/04/16 05:09:11;;;;;;;37.63;27.53;;;8.20;91.80;;;;;;5072667;28;20256;-62
2022/04/16 05:11:36;;;;;;;33.87;25.93;;;8.50;82.20;;;;;;5072433;28;20180;-63
2022/04/16 05:14:02;;;;;;;37.00;25.70;;;9.10;71.70;;;;;;5076605;28;20571;-62
2022/04/16 05:16:28;;;;;;;38.00;25.80;;;9.60;42.50;;;;;;5076790;28;20176;-63
2022/04/16 05:18:54;;;;;;;30.93;23.93;;;9.80;14.10;;;;;;5076859;28;20172;-62
2022/04/16 05:21:19;;;;;;;29.93;23.33;;;9.70;7.70;;;;;;5076566;28;20302;-61
2022/04/16 05:23:45;;;;;;;33.17;24.43;;;9.80;3.60;;;;;;5076626;28;20651;-62
2022/04/16 05:26:11;;;;;;;29.33;23.83;;;10.30;1.00;;;;;;5076756;28;20169;-62
2022/04/16 05:28:38;;;;;;;28.00;22.80;;;10.80;1.00;;;;;;5076183;28;20179;-62
2022/04/16 05:31:05;;;;;;;32.70;23.50;;;11.00;1.00;;;;;;5076372;28;20314;-63
2022/04/16 05:36:16;;;;;;;29.33;23.70;;;10.50;1.00;;;;;;5076747;28;20176;-61
2022/04/16 05:38:41;;;;;;;27.27;21.73;;;11.70;1.00;;;;;;5076084;28;20180;-63
2022/04/16 05:41:07;;;;;;;26.47;22.63;;;12.80;1.00;;;;;;5075443;28;20603;-62
2022/04/16 05:43:32;;;;;;;25.87;22.07;;;13.40;1.00;;;;;;5076506;28;20530;-62
2022/04/16 05:45:58;;;;;;;23.63;21.13;;;13.60;99.90;;;;;;5076260;28;20184;-62
2022/04/16 05:48:24;;;;;;;24.40;21.20;;;14.60;11.60;;;;;;5075957;28;20177;-63
2022/04/16 05:50:50;;;;;;;26.80;22.37;;;14.90;58.40;;;;;;5076253;28;20606;-62
2022/04/16 05:53:16;;;;;;;25.90;22.10;;;15.10;99.90;;;;;;5076076;28;20176;-61
2022/04/16 05:55:46;;;;;;;27.57;22.50;;;13.80;99.90;;;;;;5075080;28;20213;-62
2022/04/16 05:58:12;;;;;;;26.67;22.47;;;12.80;99.90;;;;;;5075760;28;20199;-61
2022/04/16 06:00:39;;;;;;;28.47;22.07;;;11.90;1.00;;;;;;5075374;28;20303;-62
2022/04/16 06:03:05;;;;;;;25.80;22.27;;;12.50;1.00;;;;;;5076070;28;20176;-62
2022/04/16 06:05:31;;;;;;;25.73;21.87;;;13.40;77.40;;;;;;5075927;28;20169;-63
2022/04/16 06:07:58;;;;;;;26.93;21.23;;;13.90;99.90;;;;;;5075779;28;20183;-62
2022/04/16 06:10:24;;;;;;;23.67;20.97;;;15.10;99.90;;;;;;5075245;28;20559;-62
2022/04/16 06:12:49;;;;;;;20.57;18.33;;;14.70;1.00;;;;;;5075134;28;20165;-62
2022/04/16 06:15:15;;;;;;;27.50;21.57;;;13.80;75.00;;;;;;5075834;28;20270;-62
2022/04/16 06:17:40;;;;;;;22.33;19.93;;;14.30;99.90;;;;;;5075908;28;20169;-62
2022/04/16 06:20:07;;;;;;;26.47;21.53;;;14.90;1.00;;;;;;5075474;28;20530;-63
2022/04/16 06:22:33;;;;;;;23.63;21.13;;;15.70;1.00;;;;;;5075341;28;20180;-63
2022/04/16 06:24:58;;;;;;;23.70;20.93;;;16.60;1.00;;;;;;5074394;28;20226;-62
2022/04/16 06:27:24;;;;;;;22.30;20.00;;;16.90;1.00;;;;;;5075346;28;20580;-65
2022/04/16 06:29:50;;;;;;;23.27;20.77;;;16.30;1.00;;;;;;5074918;28;20183;-63
2022/04/16 06:32:15;;;;;;;23.93;19.63;;;17.80;26.20;;;;;;5075334;28;20615;-63
2022/04/16 06:34:41;;;;;;;22.90;19.50;;;17.80;1.00;;;;;;5075329;28;20230;-63
2022/04/16 06:37:07;;;;;;;24.48;20.23;;;17.60;1.00;;;;;;5074991;28;20200;-63
2022/04/16 06:39:33;;;;;;;22.25;19.85;;;18.20;1.00;;;;;;5074771;28;20185;-63
2022/04/16 06:41:58;;;;;;;22.52;20.17;;;18.20;1.00;;;;;;5074847;28;20224;-64
2022/04/16 06:44:24;;;;;;;21.45;19.30;;;18.20;1.00;;;;;;5074816;28;20727;-63
2022/04/16 06:46:50;;;;;;;21.90;19.65;;;19.00;1.00;;;;;;5075371;28;20203;-63
2022/04/16 06:49:16;;;;;;;22.30;19.92;;;18.70;1.00;;;;;;5074828;28;20264;-63
2022/04/16 06:51:42;;;;;;;22.23;20.00;;;18.50;1.00;;;;;;5074854;28;20210;-64
2022/04/16 06:54:08;;;;;;;19.60;17.73;;;18.50;1.00;;;;;;5074345;28;20642;-63
2022/04/16 06:56:34;;;;;;;20.20;18.15;;;19.40;99.90;;;;;;5074350;28;20755;-63
2022/04/16 06:59:00;;;;;;;18.45;16.65;;;19.30;99.90;;;;;;5074681;28;20263;-63
2022/04/16 07:01:26;;;;;;;20.65;18.65;;;19.30;99.90;;;;;;5074488;28;20218;-63
2022/04/16 07:03:51;;;;;;;20.40;18.42;;;18.70;99.90;;;;;;5074705;28;20540;-64
2022/04/16 07:06:17;;;;;;;19.17;17.10;;;19.20;99.90;;;;;;5074108;28;20173;-63
2022/04/16 07:08:43;;;;;;;20.23;18.30;;;20.70;99.90;;;;;;5074120;28;20570;-63
2022/04/16 07:11:08;;;;;;;19.95;18.13;;;20.70;99.90;;;;;;5074176;28;20173;-63
2022/04/16 07:13:34;;;;;;;18.98;16.95;;;20.20;99.90;;;;;;5074672;28;20165;-62
2022/04/16 07:16:00;;;;;;;18.27;16.60;;;19.60;99.90;;;;;;5074468;28;20187;-63
2022/04/16 07:18:25;;;;;;;19.33;17.52;;;19.20;99.90;;;;;;5074421;28;20161;-63
2022/04/16 07:20:51;;;;;;;18.33;16.40;;;19.70;99.90;;;;;;5073835;28;20204;-62
2022/04/16 07:23:17;;;;;;;17.98;16.08;;;20.00;99.90;;;;;;5073562;28;20260;-64
2022/04/16 07:25:42;;;;;;;18.15;16.30;;;18.80;99.90;;;;;;5074033;28;20177;-63
2022/04/16 07:28:09;;;;;;;16.60;15.00;;;19.60;99.90;;;;;;5074251;28;20204;-64
2022/04/16 07:30:34;;;;;;;16.40;14.98;;;19.80;99.90;;;;;;5073758;28;20165;-64
2022/04/16 07:33:00;;;;;;;17.45;15.60;;;20.30;99.90;;;;;;5074231;28;20647;-63
2022/04/16 07:35:26;;;;;;;16.85;14.88;;;19.90;99.90;;;;;;5072762;28;20176;-63
2022/04/16 07:37:57;;;;;;;16.58;15.00;;;19.90;99.90;;;;;;5073738;28;20261;-63
2022/04/16 07:40:26;;;;;;;16.05;14.60;;;19.30;99.90;;;;;;5073559;28;20219;-64
2022/04/16 07:42:52;;;;;;;17.23;15.52;;;18.80;99.90;;;;;;5073330;28;20173;-63
2022/04/16 07:45:17;;;;;;;16.85;15.27;;;18.30;99.90;;;;;;5073715;28;20164;-63
2022/04/16 07:47:43;;;;;;;16.48;14.88;;;19.20;99.90;;;;;;5074101;28;20172;-64
2022/04/16 07:50:09;;;;;;;14.82;12.68;;;19.80;99.90;;;;;;5073333;28;20207;-63
2022/04/16 07:52:35;;;;;;;15.68;14.27;;;19.90;99.90;;;;;;5072647;28;20164;-64
2022/04/16 07:55:00;;;;;;;15.13;13.73;;;18.50;99.90;;;;;;5073167;28;20172;-63
2022/04/16 07:57:50;;;;;;;15.80;14.10;;;19.30;99.90;;;;;;5172273;27;20515;-73
2022/04/16 08:00:16;;;;;;;16.95;15.18;;;19.40;99.90;;;;;;5132582;27;20170;-73
2022/04/16 08:02:41;;;;;;;16.10;14.60;;;18.80;99.90;;;;;;5133117;27;20222;-74
2022/04/16 08:05:07;;;;;;;16.40;14.80;;;19.00;99.90;;;;;;5152016;27;20162;-74
2022/04/16 08:07:33;;;;;;;15.00;13.55;;;19.80;99.90;;;;;;5150935;27;20248;-74
2022/04/16 08:09:59;;;;;;;15.50;13.90;;;20.70;99.90;;;;;;5151720;27;20197;-73
2022/04/16 08:12:27;;;;;;;14.98;13.48;;;20.90;99.90;;;;;;5151313;27;20631;-74
2022/04/16 08:14:53;;;;;;;15.27;13.82;;;21.40;99.90;;;;;;5151514;27;20197;-74
2022/04/16 08:17:18;;;;;;;15.18;13.68;;;21.40;99.90;;;;;;5151753;27;20245;-74
2022/04/16 08:19:44;;;;;;;14.55;13.15;;;21.60;99.90;;;;;;5151102;27;20632;-74
2022/04/16 08:22:17;;;;;;;12.93;11.73;;;20.80;99.90;;;;;;5150451;27;20190;-74
2022/04/16 08:24:55;;;;;;;13.23;12.00;;;20.90;99.90;;;;;;5151551;27;20170;-73
2022/04/16 08:27:21;;;;;;;13.07;11.88;;;19.20;99.90;;;;;;5151478;27;20197;-74
2022/04/16 08:29:47;;;;;;;13.00;11.88;;;18.70;99.90;;;;;;5151617;27;20520;-74
2022/04/16 08:32:12;;;;;;;12.48;11.38;;;18.50;99.90;;;;;;5151143;27;20181;-74
2022/04/16 08:34:38;;;;;;;12.05;10.95;;;19.00;99.90;;;;;;5150750;27;20166;-74
2022/04/16 08:37:04;;;;;;;12.18;10.60;;;18.00;99.90;;;;;;5151104;27;20213;-74
2022/04/16 08:39:30;;;;;;;13.10;11.75;;;18.00;99.90;;;;;;5151482;27;20278;-73
2022/04/16 08:41:57;;;;;;;12.65;11.35;;;18.00;99.90;;;;;;5111592;27;20697;-73
2022/04/16 08:44:26;;;;;;;11.70;10.60;;;18.10;99.90;;;;;;5130268;28;20273;-73
2022/04/16 08:46:52;;;;;;;11.35;10.25;;;18.00;99.90;;;;;;5130380;28;20510;-73
2022/04/16 08:49:20;;;;;;;12.05;10.80;;;18.70;99.90;;;;;;5129469;27;20254;-73
2022/04/16 08:51:47;;;;;;;10.48;9.40;;;18.40;99.90;;;;;;5130092;27;20197;-72
2022/04/16 08:54:13;;;;;;;11.70;10.52;;;17.70;99.90;;;;;;5130615;28;20175;-71
2022/04/16 08:56:39;;;;;;;11.57;9.75;;;18.20;99.90;;;;;;5129902;28;20233;-72
2022/04/16 08:59:05;;;;;;;12.02;10.70;;;18.00;99.90;;;;;;5129086;27;20170;-72
2022/04/16 09:01:30;;;;;;;12.07;10.98;;;18.30;99.90;;;;;;5129696;28;20170;-72
2022/04/16 09:03:58;;;;;;;11.85;10.68;;;19.20;99.90;;;;;;5111161;28;20209;-72
2022/04/16 09:06:25;;;;;;;12.02;10.93;;;20.10;99.90;;;;;;5129827;28;20179;-71
2022/04/16 09:08:50;;;;;;;12.38;10.57;;;19.10;99.90;;;;;;5116096;28;20202;-72
2022/04/16 09:11:26;;;;;;;11.75;10.55;;;18.80;99.90;;;;;;5115634;28;20198;-72
2022/04/16 09:13:56;;;;;;;11.00;10.00;;;18.70;99.90;;;;;;5116234;28;20159;-73
2022/04/16 09:16:23;;;;;;;10.57;9.57;;;19.60;99.90;;;;;;5116261;28;20253;-73
2022/04/16 09:18:55;;;;;;;11.60;10.02;;;20.60;99.90;;;;;;5115634;28;20267;-73
2022/04/16 09:21:25;;;;;;;9.90;8.90;;;20.00;99.90;;;;;;5115595;28;20217;-72
2022/04/16 09:23:57;;;;;;;8.57;7.72;;;20.50;99.90;;;;;;5115843;28;20170;-73
2022/04/16 09:26:35;;;;;;;7.25;6.65;;;19.10;99.90;;;;;;5115940;28;20194;-72
2022/04/16 09:29:13;;;;;;;7.20;6.50;;;19.20;99.90;;;;;;5097036;28;20179;-73
2022/04/16 09:31:40;;;;;;;6.05;5.50;;;19.50;99.90;;;;;;5115247;28;20693;-73
2022/04/16 09:34:20;;;;;;;5.90;5.30;;;18.00;99.90;;;;;;5115248;28;20210;-73
2022/04/16 09:36:47;;;;;;;6.50;5.90;;;18.50;99.90;;;;;;5115381;28;20238;-72
2022/04/16 09:39:14;;;;;;;8.10;7.30;;;18.30;99.90;;;;;;5115579;28;20175;-73
2022/04/16 09:41:46;;;;;;;8.02;7.30;;;19.00;99.90;;;;;;5114995;28;20191;-73
2022/04/16 09:44:23;;;;;;;8.60;7.80;;;19.20;99.90;;;;;;5115527;28;20163;-73
2022/04/16 09:46:50;;;;;;;9.45;8.55;;;19.90;99.90;;;;;;5115445;28;20237;-73
2022/04/16 09:49:17;;;;;;;8.75;7.88;;;20.30;99.90;;;;;;5114787;28;20175;-73
2022/04/16 09:51:45;;;;;;;7.60;6.82;;;20.30;99.90;;;;;;5115213;28;20171;-73
2022/04/16 09:54:11;;;;;;;8.80;6.35;;;20.40;99.90;;;;;;5115327;28;20182;-74
2022/04/16 09:56:40;;;;;;;8.55;7.70;;;19.50;99.90;;;;;;5114912;28;20219;-72
2022/04/16 09:59:12;;;;;;;6.82;6.32;;;19.20;99.90;;;;;;5115267;28;20178;-73
2022/04/16 10:01:41;;;;;;;8.52;7.72;;;18.60;99.90;;;;;;5095949;28;20171;-74
2022/04/16 10:04:08;;;;;;;11.35;9.45;;;19.00;99.90;;;;;;5113708;28;20209;-73
2022/04/16 10:06:34;;;;;;;9.05;8.07;;;19.50;99.90;;;;;;5115079;28;20224;-73
2022/04/16 10:09:13;;;;;;;8.75;7.30;;;19.50;99.90;;;;;;5114765;28;20720;-73
2022/04/16 10:14:28;;;;;;;8.13;7.30;;;19.30;99.90;;;;;;5115130;28;20177;-73
2022/04/16 10:17:09;;;;;;;7.90;7.20;;;19.60;99.90;;;;;;5113849;28;20681;-73
2022/04/16 10:19:48;;;;;;;7.63;6.85;;;18.60;99.90;;;;;;5096034;28;20220;-72
2022/04/16 10:22:27;;;;;;;6.93;6.32;;;18.80;99.90;;;;;;5114059;28;20183;-72
2022/04/16 10:24:57;;;;;;;8.65;6.50;;;19.10;99.90;;;;;;5114307;28;20170;-71
2022/04/16 10:27:27;;;;;;;5.90;5.30;;;18.40;99.90;;;;;;5114324;28;20167;-72
2022/04/16 10:29:58;;;;;;;6.47;5.97;;;18.80;99.90;;;;;;5096384;28;20656;-73
2022/04/16 10:32:36;;;;;;;6.38;5.72;;;18.80;99.90;;;;;;5113955;28;20160;-72
2022/04/16 10:35:06;;;;;;;7.05;6.45;;;17.90;99.90;;;;;;5114918;28;20221;-72
2022/04/16 10:37:40;;;;;;;8.52;7.80;;;17.10;99.90;;;;;;5114631;28;20286;-72
2022/04/16 10:40:20;;;;;;;7.60;6.90;;;17.50;99.90;;;;;;5113430;28;20187;-72
2022/04/16 10:42:58;;;;;;;7.32;6.63;;;18.30;99.90;;;;;;5114201;28;20175;-73
2022/04/16 10:45:25;;;;;;;6.65;6.07;;;18.80;99.90;;;;;;5114347;28;20219;-72
2022/04/16 10:47:54;;;;;;;8.73;7.82;;;18.50;99.90;;;;;;5113906;28;20214;-72
2022/04/16 10:50:21;;;;;;;8.27;7.50;;;17.90;99.90;;;;;;5095573;28;20171;-72
2022/04/16 10:52:54;;;;;;;8.40;7.70;;;17.80;99.90;;;;;;5114191;28;20179;-72
2022/04/16 10:55:30;;;;;;;9.23;8.10;;;18.30;99.90;;;;;;5095435;28;20610;-72
2022/04/16 10:58:06;;;;;;;9.43;8.52;;;17.80;99.90;;;;;;5113186;28;20240;-73
2022/04/16 11:00:37;;;;;;;8.77;7.50;;;17.80;99.90;;;;;;5113343;28;20613;-73
2022/04/16 11:03:10;;;;;;;7.57;6.32;;;18.50;99.90;;;;;;5113396;28;20271;-72
2022/04/16 11:05:36;;;;;;;7.65;6.13;;;18.30;99.90;;;;;;5113884;28;20657;-71
2022/04/16 11:08:04;;;;;;;8.05;6.75;;;18.10;99.90;;;;;;5112912;28;20198;-72
2022/04/16 11:10:29;;;;;;;6.80;6.18;;;18.00;99.90;;;;;;5113184;28;20183;-72
2022/04/16 11:12:57;;;;;;;7.50;6.80;;;18.30;99.90;;;;;;5095199;28;20164;-72
2022/04/16 11:15:26;;;;;;;7.88;7.13;;;18.40;99.90;;;;;;5113123;28;20175;-73
2022/04/16 11:17:59;;;;;;;7.22;6.55;;;18.00;99.90;;;;;;5113936;28;20179;-71
2022/04/16 11:20:27;;;;;;;7.60;6.88;;;17.90;99.90;;;;;;5113165;28;20197;-71
2022/04/16 11:22:54;;;;;;;9.27;6.90;;;17.90;99.90;;;;;;5113046;28;20183;-73
2022/04/16 11:25:23;;;;;;;9.48;7.97;;;17.80;99.90;;;;;;5113177;28;20171;-72
2022/04/16 11:36:11;;;;;;;7.10;6.50;;;17.50;99.90;;;;;;5113633;28;20251;-71
2022/04/16 11:38:41;;;;;;;7.50;6.50;;;17.90;99.90;;;;;;5113244;28;20163;-71
2022/04/16 11:41:10;;;;;;;7.28;6.50;;;17.50;99.90;;;;;;5112281;28;20199;-72
2022/04/16 11:43:38;;;;;;;7.45;6.75;;;17.60;99.90;;;;;;5112480;28;20228;-71
2022/04/16 11:46:11;;;;;;;9.23;8.32;;;17.80;99.90;;;;;;5113721;28;20217;-70
2022/04/16 11:48:42;;;;;;;8.43;7.72;;;18.20;99.90;;;;;;5111966;28;20664;-71
2022/04/16 11:51:11;;;;;;;7.47;6.78;;;18.20;99.90;;;;;;5112514;28;20262;-71
2022/04/16 11:53:50;;;;;;;7.47;6.88;;;18.10;99.90;;;;;;5113103;28;20174;-70
2022/04/16 11:56:22;;;;;;;8.77;6.97;;;17.70;99.90;;;;;;5112607;28;20314;-70
2022/04/16 11:58:51;;;;;;;8.90;8.00;;;17.70;99.90;;;;;;5112616;28;20266;-71
2022/04/16 12:01:21;;;;;;;9.95;7.07;;;17.70;99.90;;;;;;5093766;28;20175;-70
2022/04/16 12:03:48;;;;;;;7.68;7.03;;;17.80;99.90;;;;;;5113015;28;20163;-70
2022/04/16 12:06:15;;;;;;;7.93;7.22;;;17.90;99.90;;;;;;5112477;28;20167;-70
2022/04/16 12:08:41;;;;;;;7.80;7.10;;;17.50;99.90;;;;;;5112897;28;20175;-71
2022/04/16 12:11:07;;;;;;;8.03;7.17;;;17.40;99.90;;;;;;5112466;28;20171;-70
2022/04/16 12:13:37;;;;;;;7.90;7.17;;;17.60;99.90;;;;;;5112422;28;20221;-70
2022/04/16 12:16:08;;;;;;;8.40;7.57;;;17.60;99.90;;;;;;5113119;28;20211;-70
2022/04/16 12:18:39;;;;;;;7.67;6.63;;;17.60;99.90;;;;;;5094663;28;20207;-70
2022/04/16 12:21:07;;;;;;;8.10;7.30;;;17.50;99.90;;;;;;5112336;28;20183;-69
2022/04/16 12:23:33;;;;;;;8.70;7.90;;;17.30;99.90;;;;;;5112227;28;20189;-70
2022/04/16 12:26:09;;;;;;;9.57;7.27;;;17.10;99.90;;;;;;5112405;28;20172;-70
2022/04/16 12:28:47;;;;;;;7.97;7.27;;;17.10;99.90;;;;;;5112313;28;20171;-70
2022/04/16 12:31:23;;;;;;;8.87;7.90;;;17.30;99.90;;;;;;5094328;28;20261;-69
2022/04/16 12:33:49;;;;;;;9.50;8.60;;;17.10;99.90;;;;;;5112510;28;20183;-69
2022/04/16 12:36:15;;;;;;;8.57;7.77;;;17.00;99.90;;;;;;5112808;28;20211;-69
2022/04/16 12:38:40;;;;;;;7.80;7.00;;;16.90;99.90;;;;;;5112950;28;20258;-69
2022/04/16 12:41:10;;;;;;;9.13;8.23;;;17.00;99.90;;;;;;5111221;28;20604;-69
2022/04/16 12:43:40;;;;;;;12.23;9.83;;;17.20;99.90;;;;;;5115262;28;20167;-69
2022/04/16 12:46:06;;;;;;;9.77;8.73;;;17.00;99.90;;;;;;5116743;28;20614;-69
2022/04/16 12:48:31;;;;;;;8.73;7.83;;;17.00;99.90;;;;;;5116154;28;20167;-70
2022/04/16 12:50:57;;;;;;;9.13;8.23;;;17.00;99.90;;;;;;5116251;28;20227;-70
2022/04/16 12:53:24;;;;;;;9.67;8.47;;;16.90;99.90;;;;;;5116299;28;20187;-70
2022/04/16 12:55:50;;;;;;;8.97;8.03;;;17.20;99.90;;;;;;5115342;28;21084;-70
2022/04/16 12:58:16;;;;;;;9.07;8.27;;;17.20;99.90;;;;;;5116030;28;20540;-70
2022/04/16 13:00:42;;;;;;;9.63;8.73;;;17.00;99.90;;;;;;5116452;28;20238;-70
2022/04/16 13:03:08;;;;;;;11.30;8.67;;;17.20;99.90;;;;;;5116214;28;20173;-70
2022/04/16 13:05:33;;;;;;;9.03;8.20;;;17.30;99.90;;;;;;5116120;28;20705;-70